Time;durP1;ratioP1;P1;durP2;ratioP2;P2;SDS_P1;SDS_P2;PMS_P1;PMS_P2;Temp;Humidity;BMP_temperature;BMP_pressure;BME280_temperature;BME280_humidity;BME280_pressure;Samples;Min_cycle;Max_cycle;Signal;HPM_P1;HPM_P2
2022/11/27 00:01:08;;;;;;;42.67;20.10;;;0.60;99.90;;;;;;5042999;28;20230;-81
2022/11/27 00:03:34;;;;;;;52.50;22.75;;;1.00;99.90;;;;;;5046334;28;20188;-82
2022/11/27 00:05:59;;;;;;;208.50;33.80;;;1.20;99.90;;;;;;5042207;28;20188;-84
2022/11/27 00:08:25;;;;;;;211.60;30.53;;;1.30;99.90;;;;;;5054942;28;20177;-81
2022/11/27 00:10:50;;;;;;;239.67;33.63;;;0.60;99.90;;;;;;5052203;28;20272;-82
2022/11/27 00:13:16;;;;;;;139.33;25.43;;;0.60;99.90;;;;;;5039085;28;20186;-81
2022/11/27 00:15:42;;;;;;;89.40;21.23;;;0.40;99.90;;;;;;5040994;28;20207;-81
2022/11/27 00:18:08;;;;;;;98.23;20.13;;;0.20;99.90;;;;;;5038748;28;20470;-85
2022/11/27 00:20:34;;;;;;;83.60;19.02;;;0.00;99.90;;;;;;5038705;28;20223;-80
2022/11/27 00:22:59;;;;;;;59.43;17.67;;;-0.20;99.90;;;;;;5049956;28;20197;-79
2022/11/27 00:25:25;;;;;;;96.00;19.00;;;-0.20;99.90;;;;;;5049567;28;20180;-80
2022/11/27 00:27:50;;;;;;;97.77;20.10;;;-0.30;99.90;;;;;;5054963;28;20205;-83
2022/11/27 00:30:16;;;;;;;79.10;17.93;;;-0.30;99.90;;;;;;5066899;28;20196;-84
2022/11/27 00:32:41;;;;;;;131.47;21.93;;;-0.30;99.90;;;;;;5061866;28;21173;-83
2022/11/27 00:35:07;;;;;;;96.90;20.50;;;-0.40;99.90;;;;;;5050704;28;20268;-82
2022/11/27 00:37:33;;;;;;;68.60;16.85;;;-0.40;99.90;;;;;;5050976;28;20177;-82
2022/11/27 00:39:59;;;;;;;57.03;17.00;;;-0.40;99.90;;;;;;5044211;28;20214;-81
2022/11/27 00:42:24;;;;;;;68.43;19.17;;;-0.20;99.90;;;;;;5050763;28;20680;-83
2022/11/27 00:44:50;;;;;;;26.80;15.20;;;-0.30;99.90;;;;;;5045662;28;20193;-81
2022/11/27 00:47:15;;;;;;;43.03;17.07;;;-0.30;99.90;;;;;;5046721;28;20301;-83
2022/11/27 00:49:41;;;;;;;29.07;14.90;;;0.00;99.90;;;;;;5052908;28;20214;-78
2022/11/27 00:52:06;;;;;;;28.37;16.83;;;0.00;99.90;;;;;;5049237;28;20258;-82
2022/11/27 00:54:32;;;;;;;35.57;17.30;;;0.10;99.90;;;;;;5051401;28;20214;-79
2022/11/27 00:56:58;;;;;;;30.43;16.80;;;0.30;99.90;;;;;;5071101;28;20181;-80
2022/11/27 00:59:24;;;;;;;33.27;15.90;;;;;;;;;;5050731;28;20434;-83
2022/11/27 01:01:49;;;;;;;28.50;14.20;;;1.50;99.90;;;;;;5055246;28;20188;-85
2022/11/27 01:04:15;;;;;;;28.50;15.40;;;;;;;;;;5051908;28;20568;-82
2022/11/27 01:06:42;;;;;;;25.35;14.63;;;1.90;99.90;;;;;;5059379;28;20184;-83
2022/11/27 01:09:10;;;;;;;422.73;50.22;;;2.10;99.90;;;;;;5050141;28;20211;-80
2022/11/27 01:11:36;;;;;;;170.48;27.88;;;1.90;99.90;;;;;;5054274;28;20236;-84
2022/11/27 01:14:10;;;;;;;74.35;17.02;;;1.20;99.90;;;;;;5051936;28;20338;-85
2022/11/27 01:16:36;;;;;;;24.45;15.00;;;1.00;99.90;;;;;;5055083;28;20249;-79
2022/11/27 01:19:03;;;;;;;23.02;15.45;;;0.90;99.90;;;;;;5060481;28;20207;-83
2022/11/27 01:21:31;;;;;;;29.42;14.68;;;0.90;99.90;;;;;;5051401;28;20226;-81
2022/11/27 01:23:57;;;;;;;30.25;14.48;;;0.80;99.90;;;;;;5056730;28;20188;-83
2022/11/27 01:26:23;;;;;;;29.73;15.73;;;0.90;99.90;;;;;;5052549;28;20181;-84
2022/11/27 01:28:52;;;;;;;39.90;20.30;;;0.90;99.90;;;;;;5049747;28;21087;-83
2022/11/27 01:31:26;;;;;;;26.08;16.08;;;0.90;99.90;;;;;;5059582;28;21106;-82
2022/11/27 01:33:54;;;;;;;32.42;17.17;;;0.90;99.90;;;;;;5048432;28;20665;-84
2022/11/27 01:36:20;;;;;;;32.10;17.08;;;0.80;99.90;;;;;;5057132;28;20657;-82
2022/11/27 01:38:46;;;;;;;29.27;16.20;;;0.80;99.90;;;;;;5044803;28;20308;-81
2022/11/27 01:41:26;;;;;;;154.77;25.47;;;0.80;99.90;;;;;;5041404;28;20212;-81
2022/11/27 01:43:58;;;;;;;39.47;15.55;;;0.70;99.90;;;;;;5059358;28;20180;-81
2022/11/27 01:46:29;;;;;;;58.72;18.30;;;0.60;99.90;;;;;;5046244;28;20661;-81
2022/11/27 01:49:02;;;;;;;30.73;16.08;;;0.60;99.90;;;;;;5049861;28;20767;-80
2022/11/27 01:51:29;;;;;;;31.73;17.30;;;0.60;99.90;;;;;;5040194;28;20200;-82
2022/11/27 01:53:55;;;;;;;150.25;25.70;;;0.60;99.90;;;;;;5045446;28;20284;-83
2022/11/27 01:56:22;;;;;;;318.58;34.92;;;0.70;99.90;;;;;;5049561;28;20184;-82
2022/11/27 01:58:49;;;;;;;379.30;37.38;;;0.70;99.90;;;;;;5040641;28;20176;-80
2022/11/27 02:01:15;;;;;;;230.25;27.80;;;0.60;99.90;;;;;;5050023;28;20200;-84
2022/11/27 02:03:41;;;;;;;221.53;29.67;;;0.60;99.90;;;;;;5048051;28;20212;-82
2022/11/27 02:06:11;;;;;;;200.03;26.00;;;0.50;99.90;;;;;;5048896;28;20246;-82
2022/11/27 02:08:36;;;;;;;60.70;20.65;;;0.50;99.90;;;;;;5072019;28;20264;-84
2022/11/27 02:11:11;;;;;;;116.33;21.40;;;0.40;99.90;;;;;;5058697;28;20288;-79
2022/11/27 02:13:48;;;;;;;68.27;19.73;;;0.40;99.90;;;;;;5048486;28;20190;-82
2022/11/27 02:16:25;;;;;;;103.00;20.20;;;0.40;99.90;;;;;;5048344;28;20559;-83
2022/11/27 02:19:21;;;;;;;170.45;23.50;;;0.40;99.90;;;;;;5055867;28;20192;-81
2022/11/27 02:22:00;;;;;;;156.82;20.92;;;0.30;99.90;;;;;;5048440;28;20370;-81
2022/11/27 02:24:49;;;;;;;103.47;22.50;;;0.30;99.90;;;;;;5056557;28;20212;-84
2022/11/27 02:27:32;;;;;;;89.90;22.65;;;0.30;99.90;;;;;;5051272;28;20200;-81
2022/11/27 02:30:00;;;;;;;118.18;20.05;;;0.30;99.90;;;;;;5053155;28;20209;-83
2022/11/27 02:32:35;;;;;;;188.63;23.80;;;0.20;99.90;;;;;;5052388;28;20242;-83
2022/11/27 02:35:05;;;;;;;106.00;21.23;;;0.00;99.90;;;;;;5053540;28;20687;-83
2022/11/27 02:37:42;;;;;;;123.05;20.02;;;-0.20;99.90;;;;;;5059589;28;20216;-85
2022/11/27 02:40:11;;;;;;;117.72;21.23;;;-0.20;99.90;;;;;;5064877;28;20403;-84
2022/11/27 02:43:00;;;;;;;108.93;19.65;;;-0.30;99.90;;;;;;5053649;28;20653;-83
2022/11/27 02:45:32;;;;;;;250.65;24.73;;;-0.20;99.90;;;;;;5049972;28;20194;-81
2022/11/27 02:47:58;;;;;;;111.00;21.58;;;-0.20;99.90;;;;;;5048193;28;20184;-83
2022/11/27 02:50:25;;;;;;;246.95;27.73;;;-0.20;99.90;;;;;;5051990;28;20193;-81
2022/11/27 02:52:56;;;;;;;146.27;24.65;;;-0.20;99.90;;;;;;5053236;28;20559;-81
2022/11/27 02:55:28;;;;;;;178.40;22.63;;;-0.20;99.90;;;;;;5055918;28;20239;-83
2022/11/27 02:57:56;;;;;;;159.25;23.38;;;-0.20;99.90;;;;;;5058427;28;20177;-83
2022/11/27 03:00:22;;;;;;;179.45;23.60;;;-0.20;99.90;;;;;;5052931;28;20640;-81
2022/11/27 03:02:53;;;;;;;104.43;21.50;;;-0.20;99.90;;;;;;5050605;28;20181;-83
2022/11/27 03:05:21;;;;;;;121.68;22.88;;;-0.20;99.90;;;;;;5046165;28;20185;-82
2022/11/27 03:07:58;;;;;;;110.68;18.52;;;-0.30;99.90;;;;;;5056058;28;20181;-81
2022/11/27 03:10:42;;;;;;;179.60;23.73;;;-0.20;99.90;;;;;;5054263;28;20204;-82
2022/11/27 03:13:08;;;;;;;98.07;19.85;;;-0.20;99.90;;;;;;5049796;28;20188;-84
2022/11/27 03:16:00;;;;;;;101.50;18.90;;;-0.30;99.90;;;;;;5051755;28;20588;-84
2022/11/27 03:18:40;;;;;;;66.13;17.85;;;-0.30;99.90;;;;;;5053532;28;20183;-82
2022/11/27 03:21:23;;;;;;;93.10;20.70;;;-0.30;99.90;;;;;;5067202;28;21081;-87
2022/11/27 03:23:49;;;;;;;131.30;22.08;;;-0.30;99.90;;;;;;5061401;28;20205;-82
2022/11/27 03:26:15;;;;;;;157.87;23.40;;;-0.30;99.90;;;;;;5055550;28;21771;-82
2022/11/27 03:28:42;;;;;;;122.03;20.50;;;-0.20;99.90;;;;;;5056374;28;20185;-83
2022/11/27 03:31:08;;;;;;;150.05;21.70;;;-0.10;99.90;;;;;;5067807;28;20678;-85
2022/11/27 03:33:34;;;;;;;122.80;23.67;;;-0.10;99.90;;;;;;5061853;28;20263;-85
2022/11/27 03:35:59;;;;;;;158.07;23.90;;;-0.20;99.90;;;;;;5060467;28;20458;-83
2022/11/27 03:38:26;;;;;;;237.57;27.60;;;-0.30;99.90;;;;;;5053007;28;21035;-83
2022/11/27 03:41:10;;;;;;;249.23;26.95;;;-0.40;99.90;;;;;;5057936;28;20226;-82
2022/11/27 03:43:43;;;;;;;206.07;26.63;;;-0.40;99.90;;;;;;5064351;28;20664;-84
2022/11/27 03:46:22;;;;;;;159.75;22.23;;;-0.40;99.90;;;;;;5054543;28;20189;-85
2022/11/27 03:49:01;;;;;;;90.43;20.08;;;-0.50;99.90;;;;;;5073457;28;20917;-84
2022/11/27 03:51:55;;;;;;;105.03;20.70;;;-0.50;99.90;;;;;;5061331;28;20208;-85
2022/11/27 03:54:26;;;;;;;77.32;19.48;;;-0.40;99.90;;;;;;5050209;28;20220;-83
2022/11/27 03:57:01;;;;;;;98.65;21.73;;;-0.30;99.90;;;;;;5058387;28;20547;-82
2022/11/27 03:59:31;;;;;;;78.45;20.63;;;-0.20;99.90;;;;;;5056843;28;20787;-78
2022/11/27 04:01:56;;;;;;;62.50;19.10;;;-0.30;99.90;;;;;;5044416;28;20188;-81
2022/11/27 04:04:22;;;;;;;69.80;18.73;;;-0.50;99.90;;;;;;5064146;28;20184;-80
2022/11/27 04:06:47;;;;;;;56.00;17.67;;;-0.70;99.90;;;;;;5059125;28;20192;-81
2022/11/27 04:09:13;;;;;;;54.70;16.40;;;-0.80;99.90;;;;;;5054160;28;20214;-80
2022/11/27 04:11:39;;;;;;;53.80;16.00;;;-0.90;99.90;;;;;;5056750;28;20204;-81
2022/11/27 04:14:04;;;;;;;158.50;21.77;;;-0.90;99.90;;;;;;5052322;28;20211;-79
2022/11/27 04:16:30;;;;;;;105.37;19.27;;;-0.90;99.90;;;;;;5047675;28;20282;-81
2022/11/27 04:18:55;;;;;;;138.03;20.03;;;-0.80;99.90;;;;;;5057067;28;20178;-78
2022/11/27 04:21:21;;;;;;;134.00;22.47;;;;;;;;;;5051230;28;20751;-80
2022/11/27 04:23:47;;;;;;;153.25;23.88;;;-0.60;99.90;;;;;;5049466;28;20691;-82
2022/11/27 04:26:12;;;;;;;58.77;17.40;;;-0.50;99.90;;;;;;5056621;28;20220;-83
2022/11/27 04:28:38;;;;;;;48.33;16.30;;;-0.30;99.90;;;;;;5052166;28;20272;-80
2022/11/27 04:31:03;;;;;;;30.20;14.07;;;-0.10;99.90;;;;;;5055207;28;20200;-81
2022/11/27 04:33:29;;;;;;;84.10;18.60;;;0.00;99.90;;;;;;5055041;28;20188;-83
2022/11/27 04:35:55;;;;;;;60.07;17.73;;;-0.10;99.90;;;;;;5075243;28;20208;-83
2022/11/27 04:38:21;;;;;;;80.67;18.67;;;-0.30;99.90;;;;;;5059333;28;20556;-81
2022/11/27 04:40:46;;;;;;;60.37;16.90;;;-0.50;99.90;;;;;;5053380;28;20212;-85
2022/11/27 04:43:12;;;;;;;50.97;16.40;;;-0.50;99.90;;;;;;5047739;28;20435;-82
2022/11/27 04:45:38;;;;;;;43.13;16.20;;;-0.60;99.90;;;;;;5051917;28;20188;-85
2022/11/27 04:48:04;;;;;;;29.17;15.37;;;-0.60;99.90;;;;;;5053343;28;20189;-84
2022/11/27 04:50:30;;;;;;;28.85;15.00;;;-0.60;99.90;;;;;;5052079;28;20496;-82
2022/11/27 04:52:55;;;;;;;31.10;15.13;;;-0.70;99.90;;;;;;5048876;28;21462;-81
2022/11/27 04:55:21;;;;;;;67.03;19.37;;;-0.60;99.90;;;;;;5051595;28;20253;-84
2022/11/27 04:57:47;;;;;;;145.27;26.80;;;-0.80;99.90;;;;;;5048740;28;20867;-85
2022/11/27 05:00:13;;;;;;;73.43;18.80;;;-1.00;99.90;;;;;;5053402;28;20446;-82
2022/11/27 05:02:39;;;;;;;22.65;13.80;;;-1.00;99.90;;;;;;5054921;28;20176;-83
2022/11/27 05:05:04;;;;;;;50.90;15.30;;;-1.10;99.90;;;;;;5051385;28;20921;-80
2022/11/27 05:07:30;;;;;;;31.40;14.17;;;-1.10;99.90;;;;;;5049639;28;20489;-81
2022/11/27 05:09:56;;;;;;;57.63;17.87;;;-1.30;99.90;;;;;;5049491;28;20215;-84
2022/11/27 05:12:21;;;;;;;84.03;18.60;;;-1.40;99.90;;;;;;5047459;28;20257;-83
2022/11/27 05:14:47;;;;;;;134.63;22.50;;;-1.40;99.90;;;;;;5043126;28;20295;-80
2022/11/27 05:17:12;;;;;;;108.50;23.50;;;-1.50;99.90;;;;;;5045458;28;20184;-83
2022/11/27 05:19:38;;;;;;;249.77;31.87;;;-1.40;99.90;;;;;;5050581;28;20195;-82
2022/11/27 05:22:03;;;;;;;300.17;33.90;;;-1.40;99.90;;;;;;5053284;28;20204;-83
2022/11/27 05:24:29;;;;;;;295.77;33.37;;;-1.30;99.90;;;;;;5064314;28;20181;-82
2022/11/27 05:26:55;;;;;;;173.73;26.47;;;-1.30;99.90;;;;;;5070590;28;20180;-82
2022/11/27 05:29:21;;;;;;;160.88;24.25;;;-1.20;99.90;;;;;;5052177;28;20190;-81
2022/11/27 05:31:47;;;;;;;158.32;25.50;;;-1.00;99.90;;;;;;5049233;28;20200;-82
2022/11/27 05:34:13;;;;;;;211.47;26.47;;;-1.00;99.90;;;;;;5050496;28;20195;-82
2022/11/27 05:36:39;;;;;;;206.15;23.75;;;-0.90;99.90;;;;;;5049559;28;20209;-81
2022/11/27 05:39:07;;;;;;;142.27;19.83;;;-0.90;99.90;;;;;;5055144;28;20184;-80
2022/11/27 05:41:34;;;;;;;311.52;26.90;;;-0.80;99.90;;;;;;5052798;28;20204;-84
2022/11/27 05:43:59;;;;;;;202.13;23.60;;;-0.70;99.90;;;;;;5053492;28;20226;-82
2022/11/27 05:46:25;;;;;;;154.93;20.37;;;-0.70;99.90;;;;;;5057785;28;20173;-82
2022/11/27 05:48:50;;;;;;;266.97;31.60;;;-0.80;99.90;;;;;;5057466;28;20184;-80
2022/11/27 05:51:17;;;;;;;121.50;18.50;;;-0.90;99.90;;;;;;5054336;28;20192;-82
2022/11/27 05:53:42;;;;;;;73.85;15.55;;;-1.00;99.90;;;;;;5046343;28;20219;-85
2022/11/27 05:56:11;;;;;;;128.60;21.17;;;-0.90;99.90;;;;;;5054653;28;20771;-84
2022/11/27 05:58:37;;;;;;;178.95;19.98;;;-0.90;99.90;;;;;;5046993;28;21113;-80
2022/11/27 06:01:04;;;;;;;76.45;14.95;;;-0.90;99.90;;;;;;5047830;28;20633;-83
2022/11/27 06:03:30;;;;;;;108.05;18.05;;;-0.90;99.90;;;;;;5039153;28;20185;-80
2022/11/27 06:05:56;;;;;;;91.00;16.15;;;-0.90;99.90;;;;;;5049358;28;20550;-82
2022/11/27 06:08:22;;;;;;;82.80;16.10;;;-1.00;99.90;;;;;;5047651;28;20196;-81
2022/11/27 06:10:48;;;;;;;50.23;13.50;;;-1.10;99.90;;;;;;5053277;28;20987;-82
2022/11/27 06:13:13;;;;;;;97.70;16.20;;;-1.30;99.90;;;;;;5037380;28;20904;-82
2022/11/27 06:15:39;;;;;;;27.20;12.23;;;-1.40;99.90;;;;;;5039482;28;20209;-81
2022/11/27 06:18:06;;;;;;;68.45;16.15;;;-1.40;99.90;;;;;;5040584;28;20450;-83
2022/11/27 06:20:32;;;;;;;64.60;15.40;;;-1.60;99.90;;;;;;5046402;28;20200;-82
2022/11/27 06:22:58;;;;;;;46.65;12.70;;;-1.60;99.90;;;;;;5055130;28;20238;-83
2022/11/27 06:25:24;;;;;;;47.43;14.03;;;-1.60;99.90;;;;;;5053895;28;20176;-82
2022/11/27 06:27:50;;;;;;;29.40;11.35;;;-1.60;99.90;;;;;;5048813;28;20191;-81
2022/11/27 06:30:16;;;;;;;73.13;14.57;;;-1.60;99.90;;;;;;5050785;28;20204;-82
2022/11/27 06:32:42;;;;;;;39.80;12.80;;;-1.60;99.90;;;;;;5044742;28;20527;-83
2022/11/27 06:35:08;;;;;;;32.37;13.53;;;-1.70;99.90;;;;;;5049285;28;20198;-80
2022/11/27 06:37:33;;;;;;;47.93;12.63;;;-1.70;99.90;;;;;;5049894;28;20184;-81
2022/11/27 06:39:59;;;;;;;30.13;15.33;;;-1.70;99.90;;;;;;5059068;28;20475;-82
2022/11/27 06:42:27;;;;;;;37.97;14.40;;;-1.70;99.90;;;;;;5058187;28;20181;-83
2022/11/27 06:44:52;;;;;;;27.33;13.82;;;-1.70;99.90;;;;;;5047551;28;20192;-81
2022/11/27 06:47:18;;;;;;;33.17;13.67;;;-1.70;99.90;;;;;;5047591;28;20191;-84
2022/11/27 06:49:43;;;;;;;66.43;14.50;;;-1.70;99.90;;;;;;5043803;28;20297;-81
2022/11/27 06:52:09;;;;;;;40.27;13.43;;;-1.80;99.90;;;;;;5053177;28;21737;-83
2022/11/27 06:54:35;;;;;;;49.43;15.60;;;-1.80;99.90;;;;;;5050652;28;20215;-81
2022/11/27 06:57:00;;;;;;;30.20;13.67;;;-1.90;99.90;;;;;;5054031;28;20196;-82
2022/11/27 06:59:26;;;;;;;32.13;14.57;;;-1.70;99.90;;;;;;5050936;28;20763;-81
2022/11/27 07:01:51;;;;;;;60.03;16.10;;;-1.50;99.90;;;;;;5050723;28;20173;-84
2022/11/27 07:04:17;;;;;;;58.27;19.50;;;-1.60;99.90;;;;;;5074216;28;20575;-86
2022/11/27 07:06:42;;;;;;;29.53;16.03;;;-1.50;99.90;;;;;;5054296;28;20193;-82
2022/11/27 07:09:08;;;;;;;35.63;17.50;;;-1.60;99.90;;;;;;5059512;28;20195;-82
2022/11/27 07:11:35;;;;;;;54.80;21.83;;;-1.60;99.90;;;;;;5050644;28;20200;-82
2022/11/27 07:14:02;;;;;;;47.00;20.45;;;-1.50;99.90;;;;;;5052024;28;20176;-84
2022/11/27 07:16:30;;;;;;;46.22;19.63;;;-1.40;99.90;;;;;;5051209;28;20181;-82
2022/11/27 07:19:04;;;;;;;37.30;17.33;;;-1.20;99.90;;;;;;5045160;28;20181;-82
2022/11/27 07:21:30;;;;;;;95.72;20.70;;;-1.10;99.90;;;;;;5048455;28;20247;-85
2022/11/27 07:23:56;;;;;;;123.10;22.10;;;-1.00;99.90;;;;;;5057621;28;20185;-83
2022/11/27 07:26:27;;;;;;;102.07;23.00;;;-0.50;99.90;;;;;;5056863;28;20187;-82
2022/11/27 07:28:53;;;;;;;143.43;24.70;;;-0.50;99.90;;;;;;5050088;28;20460;-81
2022/11/27 07:31:21;;;;;;;102.82;24.92;;;-0.40;99.90;;;;;;5051555;28;20200;-83
2022/11/27 07:33:47;;;;;;;150.27;22.25;;;-0.20;99.90;;;;;;5067908;28;20177;-82
2022/11/27 07:36:18;;;;;;;173.37;25.70;;;-0.10;99.90;;;;;;5062360;28;20219;-84
2022/11/27 07:38:45;;;;;;;119.03;21.42;;;0.10;99.90;;;;;;5050583;28;20177;-85
2022/11/27 07:41:12;;;;;;;142.13;22.92;;;0.00;99.90;;;;;;5059573;28;20212;-83
2022/11/27 07:43:38;;;;;;;101.07;19.55;;;-0.10;99.90;;;;;;5049920;28;20187;-81
2022/11/27 07:46:07;;;;;;;120.88;19.20;;;-0.10;99.90;;;;;;5049462;28;20211;-80
2022/11/27 07:48:33;;;;;;;100.38;21.10;;;-0.10;99.90;;;;;;5054983;28;20177;-81
2022/11/27 07:50:58;;;;;;;154.53;26.20;;;-0.10;99.90;;;;;;5046320;28;20242;-82
2022/11/27 07:53:24;;;;;;;194.43;29.10;;;-0.20;99.90;;;;;;5066485;28;20421;-80
2022/11/27 07:55:50;;;;;;;142.47;23.93;;;-0.30;99.90;;;;;;5069763;28;20485;-82
2022/11/27 07:58:15;;;;;;;253.83;30.47;;;-0.30;99.90;;;;;;5046249;28;20235;-83
2022/11/27 08:00:41;;;;;;;150.13;23.77;;;-0.30;99.90;;;;;;5057177;28;20200;-81
2022/11/27 08:03:07;;;;;;;186.00;26.93;;;-0.40;99.90;;;;;;5053702;28;20556;-82
2022/11/27 08:05:34;;;;;;;222.00;27.52;;;-0.40;99.90;;;;;;5043042;28;20874;-84
2022/11/27 08:08:02;;;;;;;214.40;31.52;;;-0.30;99.90;;;;;;5067833;28;20939;-81
2022/11/27 08:10:38;;;;;;;244.40;31.92;;;-0.20;99.90;;;;;;5045410;28;20964;-78
2022/11/27 08:13:04;;;;;;;148.40;25.02;;;-0.10;99.90;;;;;;5047455;28;20225;-82
2022/11/27 08:15:30;;;;;;;426.83;48.70;;;0.10;99.90;;;;;;5048465;28;20204;-83
2022/11/27 08:17:55;;;;;;;228.90;30.87;;;0.40;99.90;;;;;;5047783;28;20169;-84
2022/11/27 08:20:22;;;;;;;247.83;30.90;;;1.10;99.90;;;;;;5058352;28;20204;-85
2022/11/27 08:22:48;;;;;;;147.85;24.48;;;1.40;99.90;;;;;;5053180;28;20176;-81
2022/11/27 08:25:13;;;;;;;99.77;21.03;;;1.40;99.90;;;;;;5050927;28;20879;-79
2022/11/27 08:27:39;;;;;;;149.10;19.63;;;1.60;99.90;;;;;;5046336;28;20519;-83
2022/11/27 08:30:05;;;;;;;175.03;26.20;;;1.80;99.90;;;;;;5033179;28;20448;-82
2022/11/27 08:32:32;;;;;;;225.90;33.38;;;1.90;99.90;;;;;;5041854;28;20191;-79
2022/11/27 08:34:58;;;;;;;302.42;39.63;;;2.30;99.90;;;;;;5046097;28;20189;-83
2022/11/27 08:37:24;;;;;;;165.07;28.87;;;2.50;99.90;;;;;;5048213;28;20188;-81
2022/11/27 08:39:49;;;;;;;166.67;28.00;;;2.90;99.90;;;;;;5049600;28;20731;-82
2022/11/27 08:42:15;;;;;;;190.17;24.23;;;3.20;99.90;;;;;;5050434;28;20466;-82
2022/11/27 08:44:41;;;;;;;66.43;17.90;;;3.30;99.90;;;;;;5050690;28;20264;-82
2022/11/27 08:47:06;;;;;;;155.03;24.37;;;3.40;99.90;;;;;;5054682;28;20188;-80
2022/11/27 08:49:32;;;;;;;260.33;30.30;;;3.70;99.90;;;;;;5046682;28;20176;-81
2022/11/27 08:51:57;;;;;;;206.97;28.00;;;3.60;99.90;;;;;;5045850;28;20188;-80
2022/11/27 08:54:23;;;;;;;254.10;26.93;;;3.50;99.90;;;;;;5043729;28;20200;-81
2022/11/27 08:56:51;;;;;;;212.80;21.40;;;3.20;99.90;;;;;;5048663;28;20302;-80
2022/11/27 08:59:16;;;;;;;213.20;27.98;;;2.90;99.90;;;;;;5043574;28;20211;-81
2022/11/27 09:01:42;;;;;;;295.70;36.20;;;2.70;99.90;;;;;;5048614;28;20207;-82
2022/11/27 09:04:07;;;;;;;343.80;38.53;;;2.40;99.90;;;;;;5054231;28;20169;-82
2022/11/27 09:06:35;;;;;;;233.03;29.50;;;2.40;99.90;;;;;;5047932;28;20172;-81
2022/11/27 09:09:04;;;;;;;119.32;22.67;;;2.40;99.90;;;;;;5043667;28;20230;-82
2022/11/27 09:11:30;;;;;;;127.65;22.77;;;2.60;99.90;;;;;;5045359;28;20220;-82
2022/11/27 09:13:58;;;;;;;94.15;21.77;;;2.80;99.90;;;;;;5045995;28;20234;-79
2022/11/27 09:16:24;;;;;;;35.00;16.67;;;3.20;99.90;;;;;;5046062;28;20181;-82
2022/11/27 09:18:52;;;;;;;38.00;21.40;;;4.30;99.90;;;;;;5049884;28;21243;-83
2022/11/27 09:21:20;;;;;;;30.65;17.17;;;4.20;99.90;;;;;;5050761;28;20203;-79
2022/11/27 09:23:46;;;;;;;27.92;15.95;;;4.50;99.90;;;;;;5064426;28;20233;-82
2022/11/27 09:26:15;;;;;;;24.30;14.55;;;4.60;99.90;;;;;;5052255;28;20188;-82
2022/11/27 09:28:42;;;;;;;28.20;16.80;;;4.30;99.90;;;;;;5046393;28;20178;-79
2022/11/27 09:31:11;;;;;;;26.13;18.45;;;4.40;99.90;;;;;;5048388;28;20214;-82
2022/11/27 09:33:38;;;;;;;21.52;14.25;;;4.50;99.90;;;;;;5050432;28;20191;-81
2022/11/27 09:36:24;;;;;;;18.10;13.80;;;4.80;99.90;;;;;;5065725;28;20282;-84
2022/11/27 09:38:50;;;;;;;20.40;11.85;;;5.20;99.90;;;;;;5055791;28;20683;-82
2022/11/27 09:41:35;;;;;;;15.43;8.07;;;5.40;99.90;;;;;;5050348;28;20205;-84
2022/11/27 09:44:05;;;;;;;11.55;7.43;;;5.60;99.90;;;;;;5052771;28;20181;-84
2022/11/27 09:46:35;;;;;;;16.80;6.43;;;5.90;99.90;;;;;;5066123;28;20253;-83
2022/11/27 09:49:06;;;;;;;16.20;6.60;;;5.80;99.90;;;;;;5056861;28;20181;-81
2022/11/27 09:51:42;;;;;;;9.35;5.88;;;5.70;99.90;;;;;;5060145;28;20205;-79
2022/11/27 09:54:22;;;;;;;10.07;5.88;;;5.70;99.90;;;;;;5048465;28;20176;-84
2022/11/27 09:56:52;;;;;;;13.43;5.97;;;5.60;99.90;;;;;;5050925;28;20176;-84
2022/11/27 09:59:20;;;;;;;9.07;5.75;;;5.50;99.90;;;;;;5051778;28;20177;-83
2022/11/27 10:01:45;;;;;;;9.07;5.60;;;5.40;99.90;;;;;;5061763;28;20207;-82
2022/11/27 10:04:17;;;;;;;8.27;3.97;;;5.50;99.90;;;;;;5058267;28;20181;-81
2022/11/27 10:07:32;;;;;;;9.82;6.18;;;5.60;99.90;;;;;;5050090;28;20265;-81
2022/11/27 10:10:10;;;;;;;10.88;4.53;;;5.90;99.90;;;;;;4988609;28;20214;-83
2022/11/27 10:12:58;;;;;;;9.07;4.70;;;6.20;99.90;;;;;;5054168;28;20187;-83
2022/11/27 10:15:33;;;;;;;5.63;2.95;;;6.40;99.90;;;;;;5059958;28;20207;-83
2022/11/27 10:18:38;;;;;;;5.95;3.50;;;6.50;99.90;;;;;;5066347;28;20266;-83
2022/11/27 10:21:19;;;;;;;5.03;3.40;;;6.60;99.90;;;;;;5023907;28;20220;-82
2022/11/27 10:24:06;;;;;;;6.68;3.30;;;6.80;99.90;;;;;;5065166;28;20226;-83
2022/11/27 10:26:44;;;;;;;5.25;3.15;;;7.00;99.90;;;;;;5044973;28;20203;-81
2022/11/27 10:29:35;;;;;;;6.32;2.83;;;7.30;99.90;;;;;;5056443;28;20234;-81
2022/11/27 10:32:15;;;;;;;8.70;4.70;;;7.70;99.90;;;;;;5048173;28;20187;-83
2022/11/27 10:35:04;;;;;;;6.93;3.72;;;8.00;99.90;;;;;;5059793;28;20204;-81
2022/11/27 10:37:39;;;;;;;7.75;5.50;;;8.30;99.90;;;;;;5062602;28;20207;-79
2022/11/27 10:40:20;;;;;;;5.95;3.30;;;8.00;99.90;;;;;;5052958;28;20208;-84
2022/11/27 10:43:18;;;;;;;7.68;3.30;;;8.00;99.90;;;;;;5065714;28;20265;-79
2022/11/27 10:46:19;;;;;;;7.45;3.30;;;8.30;99.90;;;;;;5083786;28;20186;-79
2022/11/27 10:48:51;;;;;;;5.10;2.45;;;8.50;99.90;;;;;;5088104;28;20248;-80
2022/11/27 10:51:29;;;;;;;3.67;2.60;;;8.80;99.90;;;;;;5079620;28;20193;-82
2022/11/27 10:53:55;;;;;;;3.47;2.63;;;;;;;;;;5082260;28;20187;-82
2022/11/27 10:56:51;;;;;;;6.22;3.50;;;8.70;99.90;;;;;;5079979;28;20227;-79
2022/11/27 10:59:36;;;;;;;5.75;3.33;;;8.60;99.90;;;;;;5078200;28;20172;-81
2022/11/27 11:02:04;;;;;;;4.38;3.92;;;8.30;99.90;;;;;;5082279;28;20160;-78
2022/11/27 11:04:31;;;;;;;4.20;3.03;;;8.00;99.90;;;;;;5082779;28;20855;-84
2022/11/27 11:06:57;;;;;;;10.32;4.95;;;7.80;99.90;;;;;;5074909;28;20185;-82
2022/11/27 11:09:29;;;;;;;4.05;3.58;;;7.90;99.90;;;;;;5068058;28;20737;-81
2022/11/27 11:12:19;;;;;;;6.00;3.75;;;8.00;99.90;;;;;;5069688;28;20181;-83
2022/11/27 11:14:54;;;;;;;5.38;3.47;;;8.10;99.90;;;;;;5063242;28;20714;-83
2022/11/27 11:17:39;;;;;;;11.68;4.43;;;8.10;99.90;;;;;;5057603;28;20187;-84
2022/11/27 11:20:22;;;;;;;14.27;4.53;;;8.10;99.90;;;;;;5062972;28;20207;-85
2022/11/27 11:22:49;;;;;;;9.15;4.05;;;8.10;99.90;;;;;;5059845;28;20180;-86
2022/11/27 11:25:17;;;;;;;5.65;3.80;;;8.20;99.90;;;;;;5061423;28;20295;-84
2022/11/27 11:27:46;;;;;;;6.88;5.00;;;8.30;99.90;;;;;;5055461;28;20244;-81
2022/11/27 11:30:29;;;;;;;13.13;6.85;;;8.40;99.90;;;;;;5056326;28;20208;-83
2022/11/27 11:33:01;;;;;;;11.63;5.97;;;8.40;99.90;;;;;;5074429;28;20608;-82
2022/11/27 11:35:35;;;;;;;8.60;5.03;;;8.40;99.90;;;;;;5064062;28;20245;-81
2022/11/27 11:38:12;;;;;;;15.20;4.25;;;8.30;99.90;;;;;;5061917;28;20179;-82
2022/11/27 11:40:39;;;;;;;6.57;3.75;;;8.00;99.90;;;;;;5067052;28;20298;-82
2022/11/27 11:43:21;;;;;;;10.65;5.93;;;7.60;99.90;;;;;;5055814;28;20297;-84
2022/11/27 11:45:47;;;;;;;11.73;6.25;;;7.40;99.90;;;;;;5060170;28;20184;-79
2022/11/27 11:48:22;;;;;;;10.57;5.23;;;7.60;99.90;;;;;;5057159;28;20233;-80
2022/11/27 11:51:15;;;;;;;7.03;4.38;;;7.60;99.90;;;;;;5061627;28;20466;-80
2022/11/27 11:53:51;;;;;;;6.38;4.22;;;7.80;99.90;;;;;;5080887;28;20180;-85
2022/11/27 11:56:33;;;;;;;4.80;3.30;;;8.00;99.90;;;;;;5068161;28;20204;-84
2022/11/27 11:59:18;;;;;;;4.38;3.85;;;8.10;99.90;;;;;;5063190;28;20303;-83
2022/11/27 12:02:03;;;;;;;16.35;6.70;;;8.40;99.90;;;;;;5066577;28;20212;-84
2022/11/27 12:04:31;;;;;;;7.32;3.60;;;8.70;99.90;;;;;;5060966;28;20165;-79
2022/11/27 12:07:19;;;;;;;9.50;4.20;;;8.70;99.90;;;;;;5081377;28;20192;-84
2022/11/27 12:10:06;;;;;;;7.10;3.30;;;8.60;99.90;;;;;;5062132;28;20191;-85
2022/11/27 12:13:10;;;;;;;10.73;6.05;;;8.60;99.90;;;;;;5058086;28;20173;-82
2022/11/27 12:15:49;;;;;;;9.98;5.22;;;8.70;99.90;;;;;;5051350;28;20208;-84
2022/11/27 12:18:25;;;;;;;6.10;3.90;;;8.60;99.90;;;;;;5055071;28;20180;-83
2022/11/27 12:21:11;;;;;;;3.63;2.67;;;8.50;99.90;;;;;;5052590;28;20634;-84
2022/11/27 12:23:52;;;;;;;11.38;3.20;;;8.50;99.90;;;;;;5052966;28;20192;-84
2022/11/27 12:26:50;;;;;;;8.13;3.63;;;8.40;99.90;;;;;;5059228;28;20172;-83
2022/11/27 12:29:38;;;;;;;2.95;2.17;;;8.30;99.90;;;;;;5058496;28;20637;-84
2022/11/27 12:32:38;;;;;;;7.35;2.78;;;8.10;99.90;;;;;;5067901;28;20177;-84
2022/11/27 12:35:30;;;;;;;8.38;3.20;;;8.30;99.90;;;;;;5066996;28;20201;-82
2022/11/27 12:38:14;;;;;;;4.70;2.80;;;8.50;99.90;;;;;;5063330;28;20176;-81
2022/11/27 12:40:46;;;;;;;4.97;4.18;;;8.60;99.90;;;;;;5058823;28;20227;-81
2022/11/27 12:43:24;;;;;;;5.75;3.92;;;8.60;99.90;;;;;;5061318;28;20196;-81
2022/11/27 12:45:57;;;;;;;6.20;4.55;;;8.80;99.90;;;;;;5070156;28;20547;-83
2022/11/27 12:48:40;;;;;;;5.43;3.85;;;8.70;99.90;;;;;;5072180;28;20180;-82
2022/11/27 12:51:11;;;;;;;7.70;3.38;;;8.80;99.90;;;;;;5075763;28;20848;-80